Time;durP1;ratioP1;P1;durP2;ratioP2;P2;SDS_P1;SDS_P2;PMS_P1;PMS_P2;Temp;Humidity;BMP_temperature;BMP_pressure;BME280_temperature;BME280_humidity;BME280_pressure;Samples;Min_cycle;Max_cycle;Signal;HPM_P1;HPM_P2
2021/07/22 00:01:26;;;;;;;6.90;4.07;;;;;;;28.34;34.38;97107.56;5003913;28;20029;-34
2021/07/22 00:03:51;;;;;;;6.13;4.40;;;;;;;28.34;34.35;97104.09;5007205;28;20018;-34
2021/07/22 00:06:17;;;;;;;5.88;4.15;;;;;;;28.32;34.45;97093.66;5006324;28;20025;-33
2021/07/22 00:08:42;;;;;;;5.20;3.70;;;;;;;28.34;34.30;97097.03;5010346;28;20656;-33
2021/07/22 00:11:08;;;;;;;6.45;4.03;;;;;;;28.34;34.41;97097.03;5008938;28;20049;-36
2021/07/22 00:13:33;;;;;;;6.63;4.25;;;;;;;28.34;34.45;97101.47;5003400;28;20037;-34
2021/07/22 00:15:58;;;;;;;4.78;4.25;;;;;;;28.35;34.25;97098.75;5020596;28;20072;-36
2021/07/22 00:18:24;;;;;;;5.38;3.80;;;;;;;28.35;34.34;97088.22;5005174;28;20400;-32
2021/07/22 00:20:49;;;;;;;6.78;3.75;;;;;;;28.35;34.30;97096.13;5010401;28;20486;-38
2021/07/22 00:23:15;;;;;;;3.90;3.50;;;;;;;28.36;34.41;97094.31;5008254;28;20244;-34
2021/07/22 00:25:40;;;;;;;4.40;3.88;;;;;;;28.36;34.41;97095.16;5001087;28;20025;-34
2021/07/22 00:28:06;;;;;;;7.35;4.40;;;;;;;28.37;34.27;97090.75;5002095;28;20622;-33
2021/07/22 00:30:31;;;;;;;7.82;3.80;;;;;;;28.37;34.55;97093.41;5006248;28;20949;-35
2021/07/22 00:32:57;;;;;;;5.10;3.78;;;;;;;28.37;34.35;97085.50;5007748;28;20029;-37
2021/07/22 00:35:23;;;;;;;5.35;3.80;;;;;;;28.37;34.55;97085.50;5002888;28;20033;-36
2021/07/22 00:37:49;;;;;;;6.97;3.65;;;;;;;28.37;34.46;97091.59;5022473;28;20076;-33
2021/07/22 00:40:14;;;;;;;6.07;3.90;;;;;;;28.38;34.51;97089.81;5002310;28;20532;-35
2021/07/22 00:43:02;;;;;;;5.25;4.00;;;;;;;28.38;34.32;97087.19;5006430;28;20059;-36
2021/07/22 00:45:31;;;;;;;7.90;4.20;;;;;;;28.40;34.25;97093.19;5002266;28;20047;-34
2021/07/22 00:47:58;;;;;;;5.47;3.92;;;;;;;28.39;34.57;97084.47;5003777;28;20674;-33
2021/07/22 00:50:24;;;;;;;5.03;3.90;;;;;;;28.39;34.42;97084.47;5001560;28;20115;-38
2021/07/22 00:52:49;;;;;;;4.40;3.78;;;;;;;28.40;34.33;97080.88;5007210;28;20500;-34
2021/07/22 00:55:18;;;;;;;8.88;3.83;;;;;;;28.40;34.20;97083.50;5006508;28;20026;-34
2021/07/22 00:57:44;;;;;;;5.45;4.20;;;;;;;28.40;34.36;97075.59;5001197;28;21400;-34
2021/07/22 01:00:10;;;;;;;5.47;4.10;;;;;;;28.41;34.41;97081.69;5002432;28;20021;-37
2021/07/22 01:02:36;;;;;;;5.47;3.78;;;;;;;28.41;34.46;97082.56;5005563;28;20152;-34
2021/07/22 01:05:01;;;;;;;4.68;3.67;;;;;;;28.41;34.30;97082.56;5005676;28;20088;-32
2021/07/22 01:07:26;;;;;;;6.22;4.07;;;;;;;28.41;34.29;97077.28;5002659;28;20029;-34
2021/07/22 01:09:52;;;;;;;5.65;3.60;;;;;;;28.42;34.19;97078.97;5009055;28;20467;-33
2021/07/22 01:12:17;;;;;;;4.70;3.63;;;;;;;28.39;34.60;97073.91;5002613;28;20049;-31
2021/07/22 01:14:43;;;;;;;4.50;3.65;;;;;;;28.42;34.50;97071.06;5006526;28;20041;-36
2021/07/22 01:17:37;;;;;;;6.18;4.18;;;;;;;28.42;34.46;97070.25;5003433;28;20022;-34
2021/07/22 01:20:11;;;;;;;4.10;3.55;;;;;;;28.41;34.41;97072.03;4991499;28;20045;-34
2021/07/22 01:22:36;;;;;;;4.57;3.50;;;;;;;28.42;34.44;97063.16;5002074;28;20026;-33
2021/07/22 01:25:02;;;;;;;6.72;3.80;;;;;;;28.42;34.49;97078.16;5005959;28;20047;-32
2021/07/22 01:27:27;;;;;;;4.93;3.78;;;;;;;28.42;34.51;97070.25;5007958;28;20052;-35
2021/07/22 01:29:52;;;;;;;4.90;3.47;;;;;;;28.42;34.51;97065.81;5012560;28;20033;-35
2021/07/22 01:32:18;;;;;;;6.28;3.45;;;;;;;28.43;34.45;97070.16;5006715;28;20025;-35
2021/07/22 01:34:43;;;;;;;3.65;3.17;;;;;;;28.43;34.40;97064.03;5002320;28;20105;-36
2021/07/22 01:37:09;;;;;;;5.18;3.30;;;;;;;28.42;34.55;97068.44;5002897;28;20380;-33
2021/07/22 01:39:34;;;;;;;5.07;3.55;;;;;;;28.43;34.54;97067.53;5006071;28;20029;-36
2021/07/22 01:42:00;;;;;;;8.27;3.55;;;;;;;28.43;34.50;97059.63;5005725;28;20038;-36
2021/07/22 01:44:25;;;;;;;5.40;3.72;;;;;;;28.43;34.38;97062.25;5002783;28;20040;-37
2021/07/22 01:46:50;;;;;;;7.70;3.97;;;;;;;28.43;34.62;97059.63;5001884;28;20029;-33
2021/07/22 01:49:16;;;;;;;7.25;4.20;;;;;;;28.43;34.67;97066.66;5000863;28;20038;-33
2021/07/22 01:51:41;;;;;;;4.90;3.63;;;;;;;28.43;34.71;97056.97;5002844;28;20032;-33
2021/07/22 01:54:06;;;;;;;5.38;3.85;;;;;;;28.43;34.48;97056.97;5005959;28;20034;-31
2021/07/22 01:56:32;;;;;;;11.77;3.78;;;;;;;28.45;34.48;97053.38;5002993;28;20041;-32
2021/07/22 01:58:57;;;;;;;4.78;3.13;;;;;;;28.44;34.42;97049.91;5004104;28;20026;-35
2021/07/22 02:01:23;;;;;;;6.55;3.45;;;;;;;28.46;34.46;97052.44;5001253;28;20035;-34
2021/07/22 02:03:48;;;;;;;4.55;3.92;;;;;;;28.45;34.48;97048.13;5002928;28;20118;-34
2021/07/22 02:06:15;;;;;;;6.15;3.95;;;;;;;28.46;34.49;97047.16;5004798;28;20532;-34
2021/07/22 02:08:40;;;;;;;4.13;3.60;;;;;;;28.47;34.56;97046.22;5011108;28;20116;-36
2021/07/22 02:11:06;;;;;;;6.05;3.42;;;;;;;28.46;34.59;97036.63;5003377;28;20037;-33
2021/07/22 02:13:31;;;;;;;5.45;3.88;;;;;;;28.45;34.42;97037.56;4983488;28;20086;-34
2021/07/22 02:15:57;;;;;;;3.90;3.00;;;;;;;28.46;34.54;97036.63;5007760;28;20029;-33
2021/07/22 02:18:22;;;;;;;5.63;3.20;;;;;;;28.45;34.42;97038.41;5000004;28;20033;-35
2021/07/22 02:20:48;;;;;;;4.70;3.80;;;;;;;28.46;34.62;97036.63;5002092;28;20033;-34
2021/07/22 02:23:13;;;;;;;6.13;3.40;;;;;;;28.45;34.29;97037.56;4988352;28;20029;-32
2021/07/22 02:25:39;;;;;;;6.10;3.70;;;;;;;28.46;34.59;97047.16;5003613;28;20021;-33
2021/07/22 02:28:04;;;;;;;7.68;3.75;;;;;;;28.45;34.57;97050.75;5001053;28;20026;-35
2021/07/22 02:30:30;;;;;;;4.80;3.35;;;;;;;28.45;34.44;97038.41;4986758;28;20071;-37
2021/07/22 02:32:55;;;;;;;5.32;3.30;;;;;;;28.45;34.57;97034.94;5001243;28;20034;-36
2021/07/22 02:35:21;;;;;;;6.65;3.90;;;;;;;28.46;34.62;97041.91;5003790;28;20568;-33
2021/07/22 02:37:46;;;;;;;4.97;3.60;;;;;;;28.45;34.65;97038.41;5018819;28;20025;-32
2021/07/22 02:40:12;;;;;;;4.70;3.47;;;;;;;28.46;34.38;97041.91;5007142;28;20038;-32
2021/07/22 02:42:38;;;;;;;5.80;3.70;;;;;;;28.46;34.55;97044.53;5004738;28;20025;-33
2021/07/22 02:45:05;;;;;;;4.15;3.40;;;;;;;28.45;34.55;97045.47;5003655;28;20041;-33
2021/07/22 02:47:30;;;;;;;5.40;3.15;;;;;;;28.47;34.46;97048.84;4999645;28;20527;-34
2021/07/22 02:49:56;;;;;;;3.53;3.10;;;;;;;28.46;34.44;97057.72;5007567;28;20034;-34
2021/07/22 02:52:21;;;;;;;6.97;3.50;;;;;;;28.44;34.62;97049.91;5008089;28;20662;-33
2021/07/22 02:54:46;;;;;;;3.85;3.03;;;;;;;28.46;34.71;97052.44;5008147;28;20022;-33
2021/07/22 02:57:12;;;;;;;5.68;3.42;;;;;;;28.45;34.59;97050.75;5002807;28;20029;-35
2021/07/22 02:59:37;;;;;;;5.85;3.20;;;;;;;28.47;34.50;97059.41;5005907;28;20091;-34
2021/07/22 03:02:03;;;;;;;4.68;3.20;;;;;;;28.46;34.45;97057.72;5007407;28;20025;-32
2021/07/22 03:04:30;;;;;;;4.68;3.50;;;;;;;28.46;34.32;97052.44;5009155;28;20815;-37
2021/07/22 03:06:55;;;;;;;3.90;3.50;;;;;;;28.46;34.35;97055.09;5007730;28;20091;-35
2021/07/22 03:09:20;;;;;;;4.00;3.60;;;;;;;28.46;34.49;97052.44;5008624;28;20493;-34
2021/07/22 03:11:46;;;;;;;4.15;3.15;;;;;;;28.46;34.54;97055.94;5007491;28;20041;-34
2021/07/22 03:14:11;;;;;;;8.18;3.70;;;;;;;28.46;34.26;97057.72;5005417;28;20025;-34
2021/07/22 03:16:36;;;;;;;5.55;3.53;;;;;;;28.46;34.44;97060.34;5025279;28;20029;-34
2021/07/22 03:19:02;;;;;;;4.38;3.38;;;;;;;28.46;34.31;97063.84;5010101;28;20037;-36
2021/07/22 03:21:27;;;;;;;4.25;3.30;;;;;;;28.45;34.52;97059.50;5005724;28;20068;-35
2021/07/22 03:23:53;;;;;;;5.25;3.20;;;;;;;28.45;34.49;97064.75;5006664;28;20030;-33
2021/07/22 03:26:18;;;;;;;4.30;3.40;;;;;;;28.45;34.55;97062.13;5004060;28;20030;-36
2021/07/22 03:28:44;;;;;;;5.65;3.70;;;;;;;28.45;34.53;97061.31;5006678;28;20034;-35
2021/07/22 03:31:10;;;;;;;3.88;3.03;;;;;;;28.45;34.39;97061.31;5008970;28;20121;-33
2021/07/22 03:33:35;;;;;;;4.35;3.00;;;;;;;28.45;34.55;97063.94;5009049;28;20512;-36
2021/07/22 03:36:04;;;;;;;5.47;3.85;;;;;;;28.45;34.46;97056.84;5004422;28;20131;-33
2021/07/22 03:38:30;;;;;;;4.93;3.15;;;;;;;28.46;34.46;97058.56;5004923;28;20025;-37
2021/07/22 03:40:55;;;;;;;4.40;3.42;;;;;;;28.45;34.48;97056.84;5004061;28;20048;-33
2021/07/22 03:43:21;;;;;;;5.85;3.25;;;;;;;28.45;34.06;97063.94;5005964;28;20033;-32
2021/07/22 03:45:46;;;;;;;5.20;3.20;;;;;;;28.45;34.55;97061.31;5008676;28;20440;-33
2021/07/22 03:48:14;;;;;;;4.35;3.10;;;;;;;28.45;34.40;97050.75;5005027;28;20033;-31
2021/07/22 03:50:40;;;;;;;3.67;3.22;;;;;;;28.45;34.55;97056.03;5007943;28;20036;-34
2021/07/22 03:53:05;;;;;;;5.15;3.10;;;;;;;28.42;34.36;97052.63;5006086;28;20030;-34
2021/07/22 03:55:31;;;;;;;4.13;3.45;;;;;;;28.45;34.41;97062.13;5005402;28;20064;-33
2021/07/22 03:57:56;;;;;;;5.22;3.30;;;;;;;28.45;34.42;97051.59;5000972;28;20029;-38
2021/07/22 04:00:23;;;;;;;4.35;3.47;;;;;;;28.44;34.48;97057.81;5002713;28;20025;-32
2021/07/22 04:02:58;;;;;;;4.88;3.25;;;;;;;28.45;34.54;97061.31;5007230;28;20079;-35
2021/07/22 04:05:23;;;;;;;3.70;3.17;;;;;;;28.46;34.46;97057.72;5004186;28;20029;-35
2021/07/22 04:07:49;;;;;;;4.40;3.05;;;;;;;28.45;34.54;97061.31;5006775;28;20535;-34
2021/07/22 04:10:14;;;;;;;3.88;3.17;;;;;;;28.45;34.44;97062.13;5007674;28;20026;-36
2021/07/22 04:12:40;;;;;;;4.40;3.20;;;;;;;28.46;34.39;97057.72;5005013;28;20270;-35
2021/07/22 04:15:06;;;;;;;6.57;3.30;;;;;;;28.46;34.50;97063.00;5001035;28;20128;-34
2021/07/22 04:17:31;;;;;;;5.57;3.30;;;;;;;28.46;34.42;97068.25;5004336;28;20049;-32
2021/07/22 04:19:56;;;;;;;3.85;3.03;;;;;;;28.44;34.42;97060.44;5007848;28;20029;-33
2021/07/22 04:22:22;;;;;;;4.43;3.20;;;;;;;28.45;34.56;97066.56;4998743;28;20037;-33
2021/07/22 04:24:47;;;;;;;7.68;3.40;;;;;;;28.45;34.48;97069.22;5004307;28;20155;-35
2021/07/22 04:27:13;;;;;;;5.88;3.20;;;;;;;28.45;34.51;97066.56;5004908;28;20026;-34
2021/07/22 04:29:38;;;;;;;6.63;3.30;;;;;;;28.44;34.29;97070.97;5004592;28;20030;-33
2021/07/22 04:32:04;;;;;;;5.95;3.20;;;;;;;28.46;34.39;97068.25;5005099;28;20037;-35
2021/07/22 04:34:29;;;;;;;3.58;3.00;;;;;;;28.46;34.53;97070.91;5006992;28;20421;-35
2021/07/22 04:36:55;;;;;;;3.47;3.15;;;;;;;28.45;34.56;97061.31;5006014;28;20030;-33
2021/07/22 04:39:20;;;;;;;3.60;3.17;;;;;;;28.45;34.57;97067.41;5004961;28;20103;-38
2021/07/22 04:41:45;;;;;;;3.67;3.15;;;;;;;28.45;34.29;97069.22;5004485;28;20285;-33
2021/07/22 04:44:11;;;;;;;3.75;3.20;;;;;;;28.45;34.43;97071.84;5004442;28;20030;-35
2021/07/22 04:46:36;;;;;;;3.60;3.25;;;;;;;28.45;34.61;97069.22;5004076;28;20076;-35
2021/07/22 04:49:02;;;;;;;6.38;3.30;;;;;;;28.44;34.57;97065.72;5004521;28;20399;-34
2021/07/22 04:51:27;;;;;;;4.97;3.47;;;;;;;28.44;34.35;97060.44;5003016;28;20025;-33
2021/07/22 04:53:54;;;;;;;4.28;3.17;;;;;;;28.45;34.57;97071.84;5005693;28;20029;-33
2021/07/22 04:56:19;;;;;;;5.55;3.25;;;;;;;28.45;34.48;97066.56;5007970;28;20428;-33
2021/07/22 04:58:45;;;;;;;3.65;2.95;;;;;;;28.45;34.50;97072.66;5002874;28;20033;-35
2021/07/22 05:01:11;;;;;;;4.15;3.15;;;;;;;28.45;34.32;97069.22;5000865;28;20080;-33
2021/07/22 05:03:37;;;;;;;5.28;3.20;;;;;;;28.45;34.47;97067.41;4986914;28;20105;-35
2021/07/22 05:06:02;;;;;;;8.05;3.03;;;;;;;28.43;34.44;97067.53;5005660;28;20792;-32
2021/07/22 05:08:28;;;;;;;3.72;3.15;;;;;;;28.46;34.59;97070.91;5019126;28;20041;-33
2021/07/22 05:10:56;;;;;;;4.20;3.30;;;;;;;28.45;34.55;97066.56;5000619;28;20037;-33
2021/07/22 05:13:22;;;;;;;9.85;3.17;;;;;;;28.46;34.72;97068.25;4997726;28;20040;-34
2021/07/22 05:15:47;;;;;;;3.63;2.97;;;;;;;28.44;34.58;97060.44;5005697;28;20026;-33
2021/07/22 05:18:15;;;;;;;5.13;3.38;;;;;;;28.45;34.65;97066.56;5007523;28;20060;-31
2021/07/22 05:20:40;;;;;;;3.78;3.13;;;;;;;28.42;34.50;97065.81;5003069;28;20022;-33
2021/07/22 05:23:05;;;;;;;3.83;3.15;;;;;;;28.46;34.58;97065.63;5002659;28;20040;-33
2021/07/22 05:25:31;;;;;;;4.50;3.15;;;;;;;28.46;34.60;97070.91;5002602;28;20037;-32
2021/07/22 05:27:57;;;;;;;4.45;3.22;;;;;;;28.45;34.56;97061.31;5002296;28;20033;-34
2021/07/22 05:30:22;;;;;;;6.38;3.50;;;;;;;28.47;34.56;97069.94;5001719;28;20038;-33
2021/07/22 05:32:47;;;;;;;7.03;3.20;;;;;;;28.46;34.44;97068.25;5006424;28;20034;-37
2021/07/22 05:35:13;;;;;;;4.85;3.38;;;;;;;28.46;34.65;97074.41;5004125;28;20034;-34
2021/07/22 05:37:38;;;;;;;4.28;3.30;;;;;;;28.46;34.64;97079.66;5006537;28;20116;-34
2021/07/22 05:40:04;;;;;;;4.03;3.13;;;;;;;28.47;34.71;97075.22;5003532;28;20029;-34
2021/07/22 05:42:29;;;;;;;6.38;3.17;;;;;;;28.46;34.98;97070.91;5006203;28;20111;-33
2021/07/22 05:44:55;;;;;;;4.80;3.35;;;;;;;28.48;34.90;97076.91;5003973;28;20030;-33
2021/07/22 05:47:20;;;;;;;4.05;3.15;;;;;;;28.49;34.86;97086.53;5004069;28;20025;-34
2021/07/22 05:49:46;;;;;;;5.07;3.30;;;;;;;28.48;34.89;97084.81;5000274;28;20041;-32
2021/07/22 05:52:11;;;;;;;6.85;3.45;;;;;;;28.49;34.82;97090.00;5005544;28;20029;-38
2021/07/22 05:54:36;;;;;;;9.80;3.20;;;;;;;28.49;34.86;97084.72;5005803;28;20559;-34
2021/07/22 05:57:02;;;;;;;6.22;3.63;;;;;;;28.49;35.11;97081.25;5003470;28;20393;-32
2021/07/22 05:59:27;;;;;;;6.88;3.38;;;;;;;28.50;34.96;97086.44;5001909;28;20073;-35
2021/07/22 06:01:53;;;;;;;4.45;3.13;;;;;;;28.51;35.17;97082.88;5003711;28;20736;-34
2021/07/22 06:04:18;;;;;;;5.30;3.17;;;;;;;28.51;35.02;97088.13;5005985;28;20036;-33
2021/07/22 06:06:44;;;;;;;8.23;2.95;;;;;;;28.52;35.03;97081.06;5005968;28;23077;-34
2021/07/22 06:09:10;;;;;;;5.70;3.50;;;;;;;28.52;34.84;97078.44;5002044;28;20037;-33
2021/07/22 06:11:35;;;;;;;5.20;3.03;;;;;;;28.52;34.82;97079.28;5004765;28;20021;-33
2021/07/22 06:14:00;;;;;;;8.05;2.92;;;;;;;28.53;34.80;97085.41;5007388;28;20726;-33
2021/07/22 06:16:27;;;;;;;3.53;2.67;;;;;;;28.53;34.98;97088.06;5004498;28;20046;-33
2021/07/22 06:18:53;;;;;;;4.15;3.00;;;;;;;28.53;34.84;97085.41;5004080;28;20038;-34
2021/07/22 06:21:18;;;;;;;3.67;2.83;;;;;;;28.54;34.84;97092.38;5005703;28;20041;-33
2021/07/22 06:23:44;;;;;;;4.97;3.17;;;;;;;28.53;35.07;97085.41;5001212;28;20040;-33
2021/07/22 06:26:09;;;;;;;8.50;3.00;;;;;;;28.54;35.18;97084.47;4998455;28;20532;-35
2021/07/22 06:28:35;;;;;;;3.75;2.80;;;;;;;28.53;34.90;97085.41;5002575;28;20021;-33
2021/07/22 06:31:03;;;;;;;4.03;2.92;;;;;;;28.54;35.02;97081.84;5001969;28;21048;-36
2021/07/22 06:33:28;;;;;;;4.72;3.00;;;;;;;28.55;35.04;97086.16;4997667;28;20033;-35
2021/07/22 06:35:53;;;;;;;20.17;4.05;;;;;;;28.55;35.09;97084.38;5002561;28;20060;-34
2021/07/22 06:38:19;;;;;;;19.13;4.80;;;;;;;28.55;34.82;97091.44;5003463;28;20371;-34
2021/07/22 06:40:44;;;;;;;10.70;5.57;;;;;;;28.52;34.29;97088.97;5001048;28;21639;-34
2021/07/22 06:43:10;;;;;;;17.85;6.07;;;;;;;28.47;33.96;97088.41;5000332;28;20512;-33
2021/07/22 06:45:36;;;;;;;20.05;5.40;;;;;;;28.42;33.85;97089.53;4999021;28;20034;-35
2021/07/22 06:48:04;;;;;;;13.85;5.68;;;;;;;28.37;33.60;97094.22;5001211;28;20048;-34
2021/07/22 06:50:30;;;;;;;18.08;6.18;;;;;;;28.30;33.53;97085.84;4999360;28;20510;-35
2021/07/22 06:52:55;;;;;;;15.70;6.07;;;;;;;28.26;33.52;97088.75;4998985;28;20053;-33
2021/07/22 06:55:21;;;;;;;12.18;6.10;;;;;;;28.20;33.79;97094.34;4999428;28;20034;-34
2021/07/22 06:57:48;;;;;;;13.40;6.00;;;;;;;28.12;33.61;97086.88;4998916;28;20590;-37
2021/07/22 07:00:13;;;;;;;12.77;6.40;;;;;;;28.04;33.47;97079.44;5000777;28;20400;-35
2021/07/22 07:02:39;;;;;;;16.90;6.47;;;;;;;27.96;33.46;97082.50;5003037;28;20025;-34
2021/07/22 07:05:06;;;;;;;16.10;6.68;;;;;;;27.89;33.65;97092.53;4972668;28;20088;-38
2021/07/22 07:07:31;;;;;;;21.55;7.00;;;;;;;27.84;33.86;97091.94;4999252;28;20033;-34
2021/07/22 07:09:57;;;;;;;26.85;6.90;;;;;;;27.79;33.88;97080.84;5000923;28;20033;-34
2021/07/22 07:12:22;;;;;;;17.30;6.90;;;;;;;27.75;33.94;97084.56;5001709;28;20026;-33
2021/07/22 07:14:47;;;;;;;20.30;6.82;;;;;;;27.72;34.18;97090.03;5000529;28;20038;-30
2021/07/22 07:17:13;;;;;;;22.15;7.20;;;;;;;27.70;34.14;97084.00;5002947;28;20025;-32
2021/07/22 07:19:38;;;;;;;18.02;7.10;;;;;;;27.70;34.37;97078.72;4999460;28;20392;-31
2021/07/22 07:22:04;;;;;;;13.60;6.75;;;;;;;27.71;34.46;97083.91;5000541;28;20044;-33
2021/07/22 07:24:29;;;;;;;15.27;6.82;;;;;;;27.70;34.30;97082.22;5002888;28;20510;-33
2021/07/22 07:26:55;;;;;;;13.32;6.70;;;;;;;27.71;34.44;97088.31;5004333;28;20753;-35
2021/07/22 07:29:20;;;;;;;14.50;6.45;;;;;;;27.70;34.53;97081.34;4999621;28;20026;-33
2021/07/22 07:31:45;;;;;;;9.88;6.10;;;;;;;27.74;34.58;97082.88;4993644;28;20037;-36
2021/07/22 07:34:11;;;;;;;18.10;6.88;;;;;;;27.74;34.41;97078.47;4998465;28;20072;-32
2021/07/22 07:36:45;;;;;;;15.25;6.25;;;;;;;27.75;34.00;97074.03;5006328;28;20547;-33
2021/07/22 07:39:12;;;;;;;15.10;6.78;;;;;;;27.76;34.45;97075.72;5004467;28;20033;-32
2021/07/22 07:41:38;;;;;;;12.65;6.57;;;;;;;27.73;34.27;97070.66;5001758;28;20033;-35
2021/07/22 07:44:03;;;;;;;14.88;6.55;;;;;;;27.71;34.26;97067.25;5003117;28;20029;-37
2021/07/22 07:46:29;;;;;;;11.35;6.55;;;;;;;27.69;34.23;97069.13;5002502;28;20030;-33
2021/07/22 07:48:54;;;;;;;12.30;6.18;;;;;;;27.67;34.19;97071.84;5005504;28;20033;-36
2021/07/22 07:51:19;;;;;;;12.48;6.45;;;;;;;27.63;34.21;97071.19;5002015;28;20034;-31
2021/07/22 07:53:45;;;;;;;12.63;6.20;;;;;;;27.62;34.36;97073.91;5003577;28;20033;-36
2021/07/22 07:56:10;;;;;;;13.20;5.70;;;;;;;27.62;34.45;97064.19;5000788;28;20376;-32
2021/07/22 07:58:36;;;;;;;10.43;5.63;;;;;;;27.63;34.50;97060.66;5000216;28;20629;-32
2021/07/22 08:01:01;;;;;;;9.38;5.75;;;;;;;27.65;34.61;97074.56;5003127;28;20029;-35
2021/07/22 08:03:27;;;;;;;8.60;5.75;;;;;;;27.70;34.19;97065.56;5002152;28;20152;-32
2021/07/22 08:05:53;;;;;;;12.77;6.18;;;;;;;27.73;34.45;97065.41;5001341;28;20060;-33
2021/07/22 08:08:18;;;;;;;10.27;5.80;;;;;;;27.77;34.21;97056.38;5004166;28;20210;-34
2021/07/22 08:10:44;;;;;;;15.07;6.07;;;;;;;27.82;34.00;97058.75;4990088;28;20593;-39
2021/07/22 08:13:10;;;;;;;9.30;5.78;;;;;;;27.83;33.76;97061.28;5008328;28;20280;-34
2021/07/22 08:15:36;;;;;;;14.10;6.00;;;;;;;27.82;33.60;97056.09;5003842;28;20038;-32
2021/07/22 08:18:02;;;;;;;22.05;5.78;;;;;;;27.83;33.65;97055.16;5003822;28;20029;-32
2021/07/22 08:20:27;;;;;;;18.25;5.70;;;;;;;27.83;33.47;97045.50;5001744;28;20030;-34
2021/07/22 08:22:53;;;;;;;16.30;5.88;;;;;;;27.84;33.68;97044.53;5001822;28;20049;-32
2021/07/22 08:25:18;;;;;;;13.52;5.93;;;;;;;27.85;33.73;97048.91;5001721;28;20029;-33
2021/07/22 08:27:45;;;;;;;11.48;5.60;;;;;;;27.88;33.74;97047.88;5000320;28;20025;-35
2021/07/22 08:30:11;;;;;;;9.18;5.38;;;;;;;27.89;33.46;97050.38;5003164;28;20037;-32
2021/07/22 08:32:37;;;;;;;12.98;5.78;;;;;;;27.91;33.53;97045.91;5005331;28;20495;-37
2021/07/22 08:35:02;;;;;;;8.65;5.80;;;;;;;27.93;33.50;97045.81;4998965;28;20033;-33
2021/07/22 08:37:28;;;;;;;10.82;6.10;;;;;;;27.95;33.68;97048.38;5000260;28;20034;-35
2021/07/22 08:39:57;;;;;;;9.90;5.63;;;;;;;27.96;33.75;97047.41;5003801;28;20111;-32
2021/07/22 08:42:24;;;;;;;11.80;5.60;;;;;;;27.99;33.95;97050.72;5004561;28;20088;-32
2021/07/22 08:44:49;;;;;;;9.55;5.28;;;;;;;28.02;33.88;97049.69;5008543;28;20432;-34
2021/07/22 08:47:15;;;;;;;9.73;5.40;;;;;;;28.03;34.06;97054.00;4989019;28;20032;-33
2021/07/22 08:49:40;;;;;;;8.48;5.50;;;;;;;28.07;33.95;97046.78;4990959;28;20056;-34
2021/07/22 08:52:10;;;;;;;6.82;5.40;;;;;;;28.08;34.08;97043.22;5006845;28;20066;-33
2021/07/22 08:54:36;;;;;;;9.25;5.15;;;;;;;28.10;34.13;97052.72;5002471;28;20127;-35
2021/07/22 08:57:02;;;;;;;7.68;5.68;;;;;;;28.12;33.97;97045.59;5003548;28;20128;-33
2021/07/22 08:59:27;;;;;;;9.38;5.35;;;;;;;28.14;34.05;97048.09;5003472;28;20044;-35
2021/07/22 09:01:53;;;;;;;7.68;5.25;;;;;;;28.14;34.19;97048.97;4997884;28;20037;-32
2021/07/22 09:04:18;;;;;;;10.55;5.40;;;;;;;28.16;34.04;97049.75;5004200;28;20025;-38
2021/07/22 09:06:44;;;;;;;10.00;4.88;;;;;;;28.19;34.13;97046.06;5004276;28;22597;-33
2021/07/22 09:09:16;;;;;;;9.18;5.22;;;;;;;28.23;34.09;97052.00;5005573;28;20100;-32
2021/07/22 09:11:58;;;;;;;7.43;5.00;;;;;;;28.22;34.11;97051.13;5004852;28;20025;-33
2021/07/22 09:14:24;;;;;;;;;;;;;;;28.24;34.13;97048.41;5005485;28;20407;-35
2021/07/22 09:16:49;;;;;;;7.97;5.20;;;;;;;28.23;34.13;97055.50;5002697;28;19917;-34
2021/07/22 09:19:38;;;;;;;9.10;5.35;;;;;;;28.26;34.03;97057.13;5004995;28;20068;-39
2021/07/22 09:22:05;;;;;;;7.00;4.70;;;;;;;28.27;34.25;97045.66;5008743;28;20056;-35
2021/07/22 09:24:45;;;;;;;10.25;4.50;;;;;;;28.27;34.11;97049.09;5008629;28;20813;-34
2021/07/22 09:27:31;;;;;;;9.80;5.20;;;;;;;28.29;34.32;97052.50;4992170;28;20017;-35
2021/07/22 09:29:57;;;;;;;7.55;5.00;;;;;;;28.30;34.16;97048.09;5001348;28;20051;-32
2021/07/22 09:32:28;;;;;;;10.95;4.60;;;;;;;28.31;34.37;97052.44;5003186;28;20068;-32
2021/07/22 09:35:03;;;;;;;7.85;4.82;;;;;;;28.32;34.36;97043.56;5005861;28;20416;-37
2021/07/22 09:37:29;;;;;;;10.13;4.75;;;;;;;28.34;34.35;97049.59;5004337;28;20054;-33
2021/07/22 09:39:54;;;;;;;7.65;4.45;;;;;;;28.34;34.43;97052.22;5003341;28;20033;-34
2021/07/22 09:42:19;;;;;;;10.23;4.95;;;;;;;28.36;34.53;97047.72;5008269;28;20030;-34
2021/07/22 09:44:45;;;;;;;10.20;5.25;;;;;;;28.36;34.60;97053.00;5004133;28;20047;-34
2021/07/22 09:47:10;;;;;;;10.13;5.15;;;;;;;28.37;34.59;97044.16;5006270;28;20496;-36
2021/07/22 09:49:41;;;;;;;10.88;5.40;;;;;;;28.39;34.47;97042.28;5002471;28;20373;-34
2021/07/22 09:52:09;;;;;;;9.60;4.95;;;;;;;28.38;34.59;97045.84;5005478;28;20793;-33
2021/07/22 09:54:38;;;;;;;9.82;5.22;;;;;;;28.40;34.65;97037.84;5005126;28;20124;-32
2021/07/22 09:57:14;;;;;;;9.30;5.07;;;;;;;28.41;34.56;97035.13;4998356;28;20029;-33
2021/07/22 09:59:41;;;;;;;7.60;4.95;;;;;;;28.43;34.65;97042.94;5001309;28;20029;-35
2021/07/22 10:02:06;;;;;;;6.78;4.72;;;;;;;28.45;34.56;97043.69;5007616;28;20030;-36
2021/07/22 10:04:32;;;;;;;7.20;4.57;;;;;;;28.42;34.48;97035.97;5004555;28;20032;-32
2021/07/22 10:06:59;;;;;;;8.90;4.97;;;;;;;28.47;34.63;97027.78;4994520;28;20025;-33
2021/07/22 10:09:24;;;;;;;11.10;5.38;;;;;;;28.47;34.56;97030.41;4994802;28;20498;-32
2021/07/22 10:11:50;;;;;;;9.23;5.28;;;;;;;28.49;34.63;97025.91;4967959;28;20026;-34
2021/07/22 10:14:17;;;;;;;6.50;4.43;;;;;;;28.48;34.63;97018.91;5001031;28;20033;-33
2021/07/22 10:16:43;;;;;;;6.78;4.88;;;;;;;28.49;34.58;97026.75;4989851;28;20030;-32
2021/07/22 10:19:09;;;;;;;12.15;5.38;;;;;;;28.51;34.67;97029.28;5014047;28;20029;-35
2021/07/22 10:21:34;;;;;;;7.82;4.97;;;;;;;28.50;34.70;97020.53;4998120;28;21741;-37
2021/07/22 10:24:00;;;;;;;7.10;4.60;;;;;;;28.51;34.83;97018.75;4983602;28;20021;-36
2021/07/22 10:26:25;;;;;;;9.15;4.80;;;;;;;28.53;34.73;97011.59;5004185;28;20614;-32
2021/07/22 10:28:50;;;;;;;9.15;4.72;;;;;;;28.53;34.78;97017.69;5004032;28;20021;-33
2021/07/22 10:31:16;;;;;;;8.18;5.10;;;;;;;28.54;34.63;97014.13;5004655;28;20064;-34
2021/07/22 10:33:42;;;;;;;7.72;4.85;;;;;;;28.55;34.81;97015.84;5002861;28;20033;-33
2021/07/22 10:36:07;;;;;;;9.85;5.22;;;;;;;28.56;34.78;97014.03;4982550;28;21042;-33
2021/07/22 10:38:43;;;;;;;6.82;5.15;;;;;;;28.56;34.83;97011.38;4988391;28;20033;-34
2021/07/22 10:41:08;;;;;;;6.93;5.20;;;;;;;28.59;34.70;97018.25;5001478;28;20975;-34
2021/07/22 10:43:37;;;;;;;9.02;4.78;;;;;;;28.59;34.60;97011.22;5005331;28;20025;-33
2021/07/22 10:46:04;;;;;;;6.80;4.90;;;;;;;28.58;34.83;97000.75;5001363;28;20158;-33
2021/07/22 10:48:30;;;;;;;6.20;4.70;;;;;;;28.58;34.70;97004.25;5006475;28;20025;-37
2021/07/22 10:50:55;;;;;;;6.47;4.50;;;;;;;28.60;34.97;97004.16;5004384;28;20022;-34
2021/07/22 10:53:43;;;;;;;7.35;5.00;;;;;;;28.61;34.86;96996.16;5007116;28;20113;-33
2021/07/22 10:56:18;;;;;;;8.52;4.97;;;;;;;28.63;34.82;96999.53;5001530;28;20022;-34
2021/07/22 10:58:44;;;;;;;7.13;4.60;;;;;;;28.64;34.85;96995.13;5006357;28;20647;-33
2021/07/22 11:01:09;;;;;;;9.80;5.40;;;;;;;28.64;35.02;96990.69;4997532;28;20025;-34
2021/07/22 11:03:34;;;;;;;8.48;4.90;;;;;;;28.67;34.84;96992.28;4980208;28;20064;-34
2021/07/22 11:06:10;;;;;;;7.05;4.57;;;;;;;28.67;34.86;96992.28;4998258;28;20061;-34
2021/07/22 11:08:39;;;;;;;14.52;4.78;;;;;;;28.67;34.83;96995.78;5004159;28;20032;-33
2021/07/22 11:11:08;;;;;;;6.60;4.97;;;;;;;28.68;35.03;96988.72;5005041;28;20227;-36
2021/07/22 11:13:37;;;;;;;6.18;5.22;;;;;;;28.68;34.83;96991.34;5004364;28;20029;-34
2021/07/22 11:16:03;;;;;;;8.18;4.75;;;;;;;28.68;34.82;96984.28;5001959;28;20953;-34
2021/07/22 11:19:39;;;;;;;6.53;5.18;;;;;;;-148.56;100.00;61375.16;5004189;28;20741;-32
2021/07/22 11:23:10;;;;;;;7.38;4.88;;;;;;;-148.56;100.00;61375.16;5003777;28;20099;-33
2021/07/22 11:26:34;;;;;;;6.30;4.82;;;;;;;-148.56;100.00;61375.16;5005515;28;20801;-35
2021/07/22 11:29:02;;;;;;;8.50;5.13;;;;;;;28.76;34.96;96975.03;5006114;28;20795;-38
2021/07/22 11:31:31;;;;;;;9.57;4.80;;;;;;;28.75;34.90;96983.91;5001827;28;20086;-34